Jackson Springs, North Carolina
Current Conditions -  °F | °C
As of 11:35 AM on Wednesday 26 Nov 2014 (Local Time) from KSOP Reporting Station
Overcast Overcast  
Wind Chill: 44°   Ceiling: 1000
Heat Index: 46°   Visibility: 10mi
Dew Point: -6°   Wind: 6mph
Humidity: 11%   Direction: 350°N
Pressure: 29.92"   Gusts: NA
Location:  35.21°N, 79.63°W
Report Text: KSOP 261635Z AUTO 35005KT 10SM OVC010 08/M21 A2992 RMK AO1
Loading
Personal Weather Stations






























Interactive Weather Map New forecast layout! Learn more

10-Day Weather Forecast

Advertisements
Track Severe Weather on mobile